Flight Track Log - Related Links

Times and Time Zones

All times are in EDT time to prevent confusion due to time zone crossing. See the ANT506 flight status page for this flight to view local times or setup timezone preferences in your user account.

Time Position Orientation Groundspeed Altitude Reporting Facility
EDT Latitude Longitude Course Direction KTS MPH feet Rate Location/Type
Tue 02:33:46 PM 49.1667 -123.1667 327° Northwest 160 184 1,100  Level Vancouver Center
Tue 02:34:46 PM 49.1500 -123.0667 104° East 220 253 2,800 2,100 Climbing Vancouver Center
Tue 02:35:46 PM 49.1500 -122.9833 90° East 220 253 5,300 2,400 Climbing Vancouver Center
Tue 02:36:46 PM 49.2167 -122.9833 360° North 250 288 7,600 2,450 Climbing Vancouver Center
Tue 02:37:46 PM 49.2833 -123.0000 351° North 280 322 10,200 2,400 Climbing Vancouver Center
Tue 02:38:00 PM 49.8469 -123.7602 334° Northwest  Level FlightAware Approximate
Tue 02:38:46 PM 49.3667 -123.0500 339° North 320 368 12,400  Level Vancouver Center
Tue 02:39:00 PM 49.9430 -123.8430 327° Northwest  Level FlightAware Approximate
Tue 02:39:46 PM 49.4667 -123.0833 348° North 330 380 15,200  Level Vancouver Center
Tue 02:40:46 PM 49.5667 -123.0500 12° North 370 426 17,200 2,050 Climbing Vancouver Center
Tue 02:41:46 PM 49.6833 -123.0500 360° North 400 460 19,300 2,050 Climbing Vancouver Center
Tue 02:42:46 PM 49.8000 -123.0667 355° North 410 472 21,300 2,000 Climbing Vancouver Center
Tue 02:43:46 PM 49.9000 -123.1333 337° Northwest 420 483 23,300 1,850 Climbing Vancouver Center
Tue 02:44:46 PM 50.0000 -123.2000 337° Northwest 420 483 25,000 1,800 Climbing Vancouver Center
Tue 02:45:46 PM 50.1167 -123.2833 335° Northwest 430 495 26,900 1,000 Climbing Vancouver Center
Tue 02:46:46 PM 50.2167 -123.3500 337° Northwest 430 495 27,000 1,250 Climbing Vancouver Center
Tue 02:47:46 PM 50.3333 -123.4667 327° Northwest 430 495 29,400 2,550 Climbing Vancouver Center
Tue 02:48:46 PM 50.4167 -123.5167 339° North 390 449 32,100 1,900 Climbing Vancouver Center
Tue 02:49:46 PM 50.5167 -123.5833 337° Northwest 380 437 33,200 1,100 Climbing Vancouver Center
Tue 02:51:00 PM 50.6337 -123.6836 334° Northwest  Level FlightAware Approximate
Tue 02:51:46 PM 50.7167 -123.7500 334° Northwest 400 460 35,400  Level Vancouver Center
Tue 02:52:46 PM 50.8167 -123.8167 337° Northwest 410 472 36,000 300 Climbing Vancouver Center
Tue 02:53:46 PM 50.9167 -123.9333 324° Northwest 410 472 36,000  Level Vancouver Center
Tue 02:54:46 PM 51.0167 -124.0167 332° Northwest 410 472 36,000  Level Vancouver Center
Tue 02:55:46 PM 51.1167 -124.0833 337° Northwest 410 472 36,000  Level Vancouver Center
Tue 02:56:46 PM 51.2167 -124.1667 332° Northwest 410 472 36,000  Level Vancouver Center
Tue 02:57:46 PM 51.3333 -124.2500 336° Northwest 420 483 36,000  Level Vancouver Center
Tue 02:58:46 PM 51.4333 -124.3333 333° Northwest 410 472 36,000  Level Vancouver Center
Tue 02:59:46 PM 51.5333 -124.4167 333° Northwest 410 472 36,000  Level Vancouver Center
Tue 03:00:46 PM 51.6333 -124.5000 333° Northwest 420 483 36,000  Level Vancouver Center
Tue 03:01:46 PM 51.7333 -124.5833 333° Northwest 420 483 36,000  Level Vancouver Center
Tue 03:02:46 PM 51.8333 -124.6667 333° Northwest 420 483 36,000  Level Vancouver Center
Tue 03:03:46 PM 51.9500 -124.7667 332° Northwest 420 483 36,000  Level Vancouver Center
Tue 03:04:46 PM 52.0500 -124.8500 333° Northwest 420 483 36,000  Level Vancouver Center
Tue 03:05:46 PM 52.1500 -124.9333 333° Northwest 420 483 36,000  Level Vancouver Center
Tue 03:06:46 PM 52.2500 -125.0167 333° Northwest 420 483 36,000  Level Vancouver Center
Tue 03:07:46 PM 52.3667 -125.1333 329° Northwest 420 483 36,000  Level Vancouver Center
Tue 03:08:46 PM 52.4667 -125.2167 333° Northwest 420 483 36,000  Level Vancouver Center
Tue 03:09:46 PM 52.5667 -125.3000 333° Northwest 420 483 36,000  Level Vancouver Center
Tue 03:10:46 PM 52.6833 -125.4000 333° Northwest 420 483 36,000  Level Vancouver Center
Tue 03:11:46 PM 52.7833 -125.4833 333° Northwest 430 495 36,000  Level Vancouver Center
Tue 03:12:46 PM 52.8833 -125.6000 325° Northwest 420 483 36,000  Level Vancouver Center
Tue 03:13:46 PM 52.9833 -125.6833 333° Northwest 430 495 36,000  Level Vancouver Center
Tue 03:14:46 PM 53.1000 -125.7667 337° Northwest 420 483 36,000  Level Vancouver Center
Tue 03:15:46 PM 53.2000 -125.8667 329° Northwest 420 483 36,000  Level Vancouver Center
Tue 03:16:46 PM 53.3000 -125.9500 334° Northwest 420 483 36,000  Level Vancouver Center
Tue 03:17:46 PM 53.4000 -126.0667 325° Northwest 420 483 36,000  Level Vancouver Center
Tue 03:18:46 PM 53.5000 -126.1500 334° Northwest 420 483 36,000  Level Vancouver Center
Tue 03:19:46 PM 53.6000 -126.2500 329° Northwest 420 483 36,000  Level Vancouver Center
Tue 03:20:46 PM 53.7000 -126.3333 334° Northwest 420 483 36,000  Level Vancouver Center
Tue 03:21:46 PM 53.8167 -126.4333 333° Northwest 420 483 36,000  Level Vancouver Center
Tue 03:22:46 PM 53.9167 -126.5500 326° Northwest 420 483 36,000  Level Vancouver Center
Tue 03:23:46 PM 54.0167 -126.6333 334° Northwest 420 483 36,000  Level Vancouver Center
Tue 03:24:46 PM 54.1333 -126.7333 333° Northwest 420 483 36,000  Level Vancouver Center
Tue 03:25:46 PM 54.2333 -126.8167 334° Northwest 420 483 36,000  Level Vancouver Center
Tue 03:26:46 PM 54.3167 -126.9167 325° Northwest 420 483 36,000  Level Vancouver Center
Tue 03:27:46 PM 54.4167 -127.0167 330° Northwest 420 483 36,000  Level Vancouver Center
Tue 03:28:46 PM 54.5167 -127.1000 334° Northwest 420 483 36,000  Level Vancouver Center
Tue 03:29:46 PM 54.6333 -127.2333 327° Northwest 420 483 36,000  Level Vancouver Center
Tue 03:30:46 PM 54.7333 -127.3167 334° Northwest 420 483 36,000  Level Vancouver Center
Tue 03:31:46 PM 54.8333 -127.4167 330° Northwest 420 483 36,000  Level Vancouver Center
Tue 03:32:46 PM 54.9333 -127.5167 330° Northwest 440 506 36,000  Level Vancouver Center
Tue 03:33:46 PM 55.0333 -127.6333 326° Northwest 420 483 36,000  Level Vancouver Center
Tue 03:34:46 PM 55.1333 -127.7333 330° Northwest 430 495 36,000  Level Vancouver Center
Tue 03:35:46 PM 55.2500 -127.8333 334° Northwest 420 483 36,000  Level Vancouver Center
Tue 03:36:46 PM 55.3500 -127.9333 330° Northwest 410 472 36,000  Level Vancouver Center
Tue 03:37:46 PM 55.4500 -128.0333 330° Northwest 420 483 36,000  Level Vancouver Center
Tue 03:38:46 PM 55.5333 -128.1333 326° Northwest 410 472 36,000  Level Vancouver Center
Tue 03:39:46 PM 55.6333 -128.2500 327° Northwest 420 483 36,000  Level Vancouver Center
Tue 03:40:46 PM 55.7333 -128.3500 331° Northwest 420 483 36,000  Level Vancouver Center
Tue 03:41:46 PM 55.8500 -128.4667 331° Northwest 420 483 36,000  Level Vancouver Center
Tue 03:42:46 PM 55.9333 -128.5667 326° Northwest 420 483 36,000  Level Vancouver Center
Tue 03:43:46 PM 56.0333 -128.6667 331° Northwest 420 483 36,000  Level Vancouver Center
Tue 03:44:46 PM 56.1333 -128.7667 331° Northwest 420 483 36,000  Level Vancouver Center
Tue 03:45:46 PM 56.2333 -128.9000 323° Northwest 420 483 36,000  Level Vancouver Center
Tue 03:46:46 PM 56.3500 -129.0000 335° Northwest 420 483 36,000  Level Vancouver Center
Tue 03:47:46 PM 56.4333 -129.1000 326° Northwest 420 483 36,000  Level Vancouver Center
Tue 03:48:46 PM 56.5500 -129.2333 328° Northwest 430 495 36,000  Level Vancouver Center
Tue 03:49:46 PM 56.6500 -129.3500 327° Northwest 440 506 36,000  Level Vancouver Center
Tue 03:50:46 PM 56.7333 -129.4167 336° Northwest 430 495 36,000  Level Vancouver Center
Tue 03:51:46 PM 56.8500 -129.5500 328° Northwest 420 483 36,000  Level Vancouver Center
Tue 03:52:46 PM 56.9333 -129.6833 319° Northwest 430 495 36,000  Level Vancouver Center
Tue 03:53:46 PM 57.0333 -129.8333 321° Northwest 420 483 36,000  Level Vancouver Center
Tue 03:54:46 PM 57.1333 -129.9333 332° Northwest 420 483 36,000  Level Vancouver Center
Tue 03:56:00 PM 57.2424 -130.0697 326° Northwest  Level FlightAware Approximate
Tue 04:03:00 PM 57.8537 -130.8733 324° Northwest  Level FlightAware Approximate
Tue 04:04:00 PM 57.9393 -130.9937 323° Northwest  Level FlightAware Approximate
Tue 04:05:00 PM 58.0248 -131.1147 323° Northwest  Level FlightAware Approximate
Tue 04:06:00 PM 58.1101 -131.2362 323° Northwest  Level FlightAware Approximate
Tue 04:07:00 PM 58.1954 -131.3583 323° Northwest  Level FlightAware Approximate
Tue 04:08:00 PM 58.2805 -131.4810 323° Northwest  Level FlightAware Approximate
Tue 04:09:00 PM 58.3661 -131.6028 324° Northwest  Level FlightAware Approximate
Tue 04:10:00 PM 58.4519 -131.7242 324° Northwest  Level FlightAware Approximate
Tue 04:11:00 PM 58.5376 -131.8463 323° Northwest  Level FlightAware Approximate
Tue 04:12:00 PM 58.6233 -131.9689 323° Northwest  Level FlightAware Approximate
Tue 04:13:00 PM 58.7062 -132.0982 321° Northwest  Level FlightAware Approximate
Tue 04:14:00 PM 58.7888 -132.2290 321° Northwest  Level FlightAware Approximate
Tue 04:15:00 PM 58.8731 -132.3556 324° Northwest  Level FlightAware Approximate
Tue 04:16:00 PM 58.9593 -132.4780 323° Northwest  Level FlightAware Approximate
Tue 04:17:00 PM 59.0450 -132.6019 323° Northwest  Level FlightAware Approximate
Tue 04:18:00 PM 59.1284 -132.7317 321° Northwest  Level FlightAware Approximate
Tue 04:19:00 PM 59.2110 -132.8640 321° Northwest  Level FlightAware Approximate
Tue 04:20:00 PM 59.2952 -132.9927 323° Northwest  Level FlightAware Approximate
Tue 04:21:00 PM 59.3782 -133.1246 321° Northwest  Level FlightAware Approximate
Tue 04:22:00 PM 59.4609 -133.2574 321° Northwest  Level FlightAware Approximate
Tue 04:23:00 PM 59.5492 -133.3755 321° Northwest  Level FlightAware Approximate
Tue 04:24:00 PM 59.6321 -133.5088 321° Northwest  Level FlightAware Approximate
Tue 04:25:00 PM 59.7148 -133.6427 321° Northwest  Level FlightAware Approximate
Tue 04:26:00 PM 59.7974 -133.7773 321° Northwest  Level FlightAware Approximate
Tue 04:27:00 PM 59.8798 -133.9125 321° Northwest  Level FlightAware Approximate
Tue 04:28:00 PM 59.9622 -134.0484 320° Northwest  Level FlightAware Approximate
Tue 04:29:00 PM 60.0444 -134.1850 320° Northwest  Level FlightAware Approximate
Tue 04:30:00 PM 60.1265 -134.3219 320° Northwest  Level FlightAware Approximate
Tue 04:31:00 PM 60.2096 -134.4570 321° Northwest  Level FlightAware Approximate
Tue 04:32:00 PM 60.2923 -134.5933 320° Northwest  Level FlightAware Approximate
Tue 04:33:00 PM 60.3741 -134.7322 320° Northwest  Level FlightAware Approximate
Tue 04:34:00 PM 60.4563 -134.8705 321° Northwest  Level FlightAware Approximate
Tue 04:35:00 PM 60.5397 -135.0060 321° Northwest  Level FlightAware Approximate
Tue 04:36:00 PM 60.6230 -135.1271 26° Northeast  Level FlightAware Approximate
Tue 04:37:00 PM 60.7000 -135.0667 20° North  Level FlightAware Approximate
Tue 04:38:00 PM 60.7095 -135.0673 20° North  Level Estimated
Tue 04:39:00 PM 60.7095 -135.0673 20° North  Level Estimated
Tue 04:40:00 PM 60.7095 -135.0673 20° North  Level Estimated
Tue 04:41:00 PM 60.7095 -135.0673 20° North  Level Estimated
Tue 04:42:00 PM 60.7095 -135.0673 20° North  Level Estimated
Tue 04:43:00 PM 60.7095 -135.0673 20° North  Level Estimated
Tue 04:44:00 PM 60.7095 -135.0673 20° North  Level Estimated

Login

Don't have an account? Register now (free) for customized features, flight alerts, and more!